createdAt,value
2019-02-14T00:00:02.925Z,100.00
2019-02-14T00:05:01.992Z,100.00
2019-02-14T00:09:59.771Z,100.00
2019-02-14T00:14:56.875Z,100.00
2019-02-14T00:19:57.182Z,100.00
2019-02-14T00:24:55.821Z,100.00
2019-02-14T00:29:57.777Z,100.00
2019-02-14T00:35:08.770Z,100.00
2019-02-14T00:40:23.142Z,100.00
2019-02-14T00:45:32.184Z,100.00
2019-02-14T00:50:39.295Z,100.00
2019-02-14T00:55:41.168Z,100.00
2019-02-14T01:00:39.469Z,100.00
2019-02-14T01:05:38.183Z,100.00
2019-02-14T01:10:34.230Z,100.00
2019-02-14T01:15:35.393Z,100.00
2019-02-14T01:20:43.611Z,100.00
2019-02-14T01:25:36.946Z,100.00
2019-02-14T01:30:48.162Z,100.00
2019-02-14T01:35:59.011Z,100.00
2019-02-14T01:41:02.781Z,100.00
2019-02-14T01:46:02.750Z,100.00
2019-02-14T01:51:04.445Z,100.00
2019-02-14T01:56:16.345Z,100.00
2019-02-14T02:01:27.376Z,100.00
2019-02-14T02:06:34.528Z,100.00
2019-02-14T02:11:36.373Z,100.00
2019-02-14T02:16:45.483Z,100.00
2019-02-14T02:21:49.277Z,100.00
2019-02-14T02:26:53.844Z,100.00
2019-02-14T02:32:02.329Z,100.00
2019-02-14T02:44:03.093Z,100.00
2019-02-14T02:49:07.217Z,100.00
2019-02-14T02:54:14.257Z,100.00
2019-02-14T02:59:14.308Z,100.00
2019-02-14T03:04:17.983Z,100.00
2019-02-14T03:09:19.507Z,100.00
2019-02-14T03:14:23.102Z,100.00
2019-02-14T03:19:29.694Z,100.00
2019-02-14T03:24:37.180Z,100.00
2019-02-14T03:29:41.373Z,100.00
2019-02-14T03:34:49.099Z,100.00
2019-02-14T03:40:06.679Z,100.00
2019-02-14T03:45:20.225Z,100.00
2019-02-14T03:50:21.870Z,100.00
2019-02-14T03:55:24.074Z,100.00
2019-02-14T04:00:32.448Z,100.00
2019-02-14T04:05:43.948Z,100.00
2019-02-14T04:16:08.582Z,100.00
2019-02-14T04:21:16.172Z,100.00
2019-02-14T04:26:28.686Z,100.00
2019-02-14T04:32:04.465Z,100.00
2019-02-14T04:37:17.880Z,100.00
2019-02-14T04:42:25.114Z,100.00
2019-02-14T04:47:53.099Z,100.00
2019-02-14T04:53:15.882Z,100.00
2019-02-14T05:03:56.902Z,100.00
2019-02-14T05:09:13.559Z,100.00
2019-02-14T05:14:32.644Z,100.00
2019-02-14T05:19:53.621Z,100.00
2019-02-14T05:30:52.959Z,100.00
2019-02-14T05:36:00.078Z,100.00
2019-02-14T05:41:11.902Z,100.00
2019-02-14T05:46:18.116Z,100.00
2019-02-14T05:51:30.752Z,100.00
2019-02-14T05:56:42.384Z,100.00
2019-02-14T06:02:21.533Z,100.00
2019-02-14T06:07:28.195Z,100.00
2019-02-14T06:12:38.224Z,100.00
2019-02-14T06:17:55.920Z,100.00
2019-02-14T06:23:22.477Z,100.00
2019-02-14T06:34:46.471Z,100.00
2019-02-14T06:39:42.370Z,100.00
2019-02-14T06:44:47.217Z,100.00
2019-02-14T06:49:50.696Z,100.00
2019-02-14T06:54:56.792Z,100.00
2019-02-14T07:00:23.117Z,99.37
2019-02-14T07:05:26.304Z,100.00
2019-02-14T07:10:39.956Z,100.00
2019-02-14T07:15:49.289Z,100.00
2019-02-14T07:20:53.950Z,100.00
2019-02-14T07:26:04.166Z,100.00
2019-02-14T07:31:20.259Z,100.00
2019-02-14T07:36:25.394Z,100.00
2019-02-14T07:41:29.330Z,100.00
2019-02-14T07:46:59.808Z,100.00
2019-02-14T07:52:06.387Z,100.00
2019-02-14T07:57:11.173Z,100.00
2019-02-14T08:02:29.507Z,100.00
2019-02-14T08:07:23.478Z,100.00
2019-02-14T08:55:12.525Z,91.15
2019-02-14T09:00:15.246Z,91.45
2019-02-14T09:05:16.809Z,90.40
2019-02-14T09:10:18.448Z,88.81
2019-02-14T09:15:20.418Z,87.04
2019-02-14T09:20:25.993Z,84.88
2019-02-14T09:25:25.411Z,83.88
2019-02-14T09:30:21.502Z,83.50
2019-02-14T09:35:17.431Z,84.40
2019-02-14T09:40:14.008Z,85.23
2019-02-14T09:45:11.397Z,84.45
2019-02-14T09:50:09.382Z,83.81
2019-02-14T09:55:05.759Z,82.82
2019-02-14T10:00:01.836Z,81.51
2019-02-14T10:04:58.211Z,81.80
2019-02-14T10:09:54.115Z,82.16
2019-02-14T10:14:50.281Z,81.65
2019-02-14T10:19:48.211Z,83.30
2019-02-14T10:24:44.124Z,83.99
2019-02-14T10:29:40.485Z,81.70
2019-02-14T10:34:36.535Z,81.29
2019-02-14T10:39:34.587Z,81.70
2019-02-14T10:44:30.537Z,81.22
2019-02-14T10:49:27.164Z,80.46
2019-02-14T10:54:23.034Z,79.74
2019-02-14T10:59:18.921Z,76.32
2019-02-14T11:04:14.839Z,78.89
2019-02-14T11:09:10.860Z,78.41
2019-02-14T11:14:07.237Z,76.97
2019-02-14T11:19:03.121Z,75.98
2019-02-14T11:23:59.200Z,74.11
2019-02-14T11:28:55.059Z,72.90
2019-02-14T11:33:50.910Z,72.63
2019-02-14T11:38:46.840Z,73.09
2019-02-14T11:43:42.772Z,74.19
2019-02-14T11:48:38.776Z,72.67
2019-02-14T11:53:34.809Z,71.71
2019-02-14T11:58:30.719Z,72.48
2019-02-14T12:03:27.788Z,71.80
2019-02-14T12:08:23.662Z,72.16
2019-02-14T12:13:19.661Z,72.31
2019-02-14T12:18:18.491Z,72.48
2019-02-14T12:23:16.460Z,72.76
2019-02-14T12:28:18.305Z,73.88
2019-02-14T12:33:16.443Z,75.34
2019-02-14T12:38:15.270Z,75.89
2019-02-14T12:43:11.123Z,74.24
2019-02-14T12:48:08.501Z,76.89
2019-02-14T12:53:04.763Z,75.45
2019-02-14T12:58:00.871Z,71.60
2019-02-14T13:02:56.695Z,73.44
2019-02-14T13:07:54.631Z,71.17
2019-02-14T13:12:53.363Z,69.78
2019-02-14T13:17:49.478Z,68.96
2019-02-14T13:22:45.425Z,69.73
2019-02-14T13:27:41.321Z,68.51
2019-02-14T13:32:37.556Z,66.09
2019-02-14T13:37:33.512Z,66.41
2019-02-14T13:42:29.685Z,65.72
2019-02-14T13:47:27.163Z,64.97
2019-02-14T13:52:23.184Z,65.37
2019-02-14T13:57:19.446Z,67.36
2019-02-14T14:02:15.373Z,67.46
2019-02-14T14:07:11.237Z,67.80
2019-02-14T14:12:07.341Z,67.83
2019-02-14T14:17:03.282Z,66.38
2019-02-14T14:21:59.263Z,67.57
2019-02-14T14:26:55.191Z,69.25
2019-02-14T14:31:51.253Z,66.48
2019-02-14T14:36:47.194Z,64.94
2019-02-14T14:41:43.003Z,66.64
2019-02-14T14:47:06.825Z,64.43
2019-02-14T14:52:02.851Z,62.56
2019-02-14T14:56:58.904Z,64.59
2019-02-14T15:01:54.909Z,65.40
2019-02-14T15:06:50.914Z,67.08
2019-02-14T15:11:46.752Z,67.03
2019-02-14T15:16:42.948Z,68.49
2019-02-14T15:21:38.880Z,70.62
2019-02-14T15:26:34.785Z,72.06
2019-02-14T15:31:32.055Z,72.99
2019-02-14T15:36:29.547Z,74.39
2019-02-14T15:41:25.299Z,76.28
2019-02-14T15:46:21.114Z,75.89
2019-02-14T15:51:18.322Z,75.86
2019-02-14T15:56:14.757Z,77.37
2019-02-14T16:01:13.743Z,77.49
2019-02-14T16:06:09.948Z,78.31
2019-02-14T16:11:10.171Z,79.00
2019-02-14T16:16:06.166Z,79.06
2019-02-14T16:21:03.642Z,79.64
2019-02-14T16:25:59.783Z,81.07
2019-02-14T16:30:56.901Z,81.65
2019-02-14T16:35:52.846Z,82.96
2019-02-14T16:40:53.059Z,84.56
2019-02-14T16:45:49.046Z,84.02
2019-02-14T16:50:44.936Z,85.48
2019-02-14T16:55:40.806Z,86.00
2019-02-14T17:00:36.882Z,84.33
2019-02-14T17:05:36.951Z,86.74
2019-02-14T17:10:37.065Z,87.67
2019-02-14T17:15:30.352Z,87.87
2019-02-14T17:20:26.281Z,89.43
2019-02-14T17:25:23.681Z,91.51
2019-02-14T17:35:50.941Z,91.56
2019-02-14T17:40:47.453Z,94.80
2019-02-14T17:50:57.168Z,96.11
2019-02-14T17:55:53.006Z,97.72
2019-02-14T18:00:48.903Z,97.95
2019-02-14T18:05:46.384Z,98.58
2019-02-14T18:10:42.490Z,99.30
2019-02-14T18:15:41.272Z,98.97
2019-02-14T18:21:04.100Z,97.17
2019-02-14T18:26:00.059Z,97.47
2019-02-14T18:30:56.024Z,98.02
2019-02-14T18:35:51.939Z,97.92
2019-02-14T18:40:48.578Z,96.63
2019-02-14T18:45:44.582Z,99.71
2019-02-14T18:50:40.705Z,96.68
2019-02-14T18:55:36.855Z,95.40
2019-02-14T19:00:33.035Z,98.00
2019-02-14T19:05:29.133Z,95.78
2019-02-14T19:10:25.254Z,96.74
2019-02-14T19:15:23.092Z,96.45
2019-02-14T19:20:19.011Z,94.25
2019-02-14T19:25:19.355Z,94.22
2019-02-14T19:30:16.139Z,93.17
2019-02-14T19:35:25.149Z,94.13
2019-02-14T19:40:21.233Z,95.42
2019-02-14T19:45:17.288Z,95.66
2019-02-14T19:50:16.613Z,95.58
2019-02-14T19:56:19.581Z,96.66
2019-02-14T20:01:12.890Z,96.14
2019-02-14T20:06:10.811Z,94.96
2019-02-14T20:11:09.854Z,97.28
2019-02-14T20:16:05.851Z,97.12
2019-02-14T20:21:02.958Z,97.32
2019-02-14T20:26:01.699Z,95.31
2019-02-14T20:31:00.291Z,95.73
2019-02-14T20:35:56.370Z,96.87
2019-02-14T20:40:54.435Z,96.50
2019-02-14T20:45:50.588Z,95.78
2019-02-14T20:50:48.201Z,96.41
2019-02-14T20:55:45.137Z,96.34
2019-02-14T21:00:41.296Z,96.09
2019-02-14T21:05:37.334Z,96.33
2019-02-14T21:10:36.551Z,98.10
2019-02-14T21:15:32.633Z,97.54
2019-02-14T21:20:28.756Z,97.29
2019-02-14T21:25:24.668Z,97.43
2019-02-14T21:30:26.845Z,99.01
2019-02-14T21:35:35.078Z,99.60
2019-02-14T21:40:53.251Z,99.63
2019-02-14T21:45:51.324Z,100.00
2019-02-14T21:50:53.481Z,100.00
2019-02-14T21:55:49.323Z,97.04
2019-02-14T22:00:45.492Z,98.10
2019-02-14T22:05:41.584Z,96.91
2019-02-14T22:10:37.783Z,99.45
2019-02-14T22:15:33.759Z,99.43
2019-02-14T22:20:29.663Z,100.00
2019-02-14T22:25:25.486Z,99.96
2019-02-14T22:30:21.627Z,99.93
2019-02-14T22:35:20.664Z,98.99
2019-02-14T22:40:16.799Z,98.88
2019-02-14T22:45:15.918Z,99.98
2019-02-14T22:50:14.857Z,100.00
2019-02-14T22:55:11.153Z,99.98
2019-02-14T23:00:31.336Z,100.00
2019-02-14T23:05:33.525Z,100.00
2019-02-14T23:10:39.116Z,100.00
2019-02-14T23:15:39.946Z,99.74
2019-02-14T23:20:47.930Z,100.00
2019-02-14T23:25:50.870Z,99.51
2019-02-14T23:30:51.300Z,99.49
2019-02-14T23:35:51.276Z,100.00
2019-02-14T23:40:50.352Z,100.00
2019-02-14T23:45:50.723Z,100.00
2019-02-14T23:50:51.831Z,100.00
2019-02-14T23:55:47.854Z,100.00
